Time;durP1;ratioP1;P1;durP2;ratioP2;P2;SDS_P1;SDS_P2;PMS_P1;PMS_P2;Temp;Humidity;BMP_temperature;BMP_pressure;BME280_temperature;BME280_humidity;BME280_pressure;Samples;Min_cycle;Max_cycle;Signal;HPM_P1;HPM_P2
2022/09/30 00:01:08;;;;;;;;;;;7.00;99.90;;;;;;5111584;28;19931;-58
2022/09/30 00:03:38;;;;;;;;;;;6.90;99.90;;;;;;5113630;27;19924;-58
2022/09/30 00:06:06;;;;;;;;;;;6.90;99.90;;;;;;5100382;27;19924;-60
2022/09/30 00:08:36;;;;;;;;;;;6.90;99.90;;;;;;5082961;28;20454;-58
2022/09/30 00:11:05;;;;;;;;;;;6.80;99.90;;;;;;5094239;28;20346;-59
2022/09/30 00:13:33;;;;;;;;;;;6.80;99.90;;;;;;5114333;27;19924;-58
2022/09/30 00:16:01;;;;;;;;;;;6.80;99.90;;;;;;5110031;28;19924;-59
2022/09/30 00:18:29;;;;;;;;;;;6.80;99.90;;;;;;5112090;28;19931;-59
2022/09/30 00:20:56;;;;;;;;;;;6.70;99.90;;;;;;5110922;28;19928;-58
2022/09/30 00:23:24;;;;;;;;;;;6.70;99.90;;;;;;5110356;28;19946;-59
2022/09/30 00:25:56;;;;;;;;;;;6.70;99.90;;;;;;5131775;27;19947;-57
2022/09/30 00:28:24;;;;;;;;;;;6.60;99.90;;;;;;5123559;27;19998;-57
2022/09/30 00:30:51;;;;;;;;;;;6.60;99.90;;;;;;5093221;28;20294;-59
2022/09/30 00:33:19;;;;;;;;;;;6.60;99.90;;;;;;5112142;28;19928;-57
2022/09/30 00:35:46;;;;;;;;;;;6.50;99.90;;;;;;5086381;28;19947;-56
2022/09/30 00:38:13;;;;;;;;;;;6.60;99.90;;;;;;5111699;28;20334;-58
2022/09/30 00:40:42;;;;;;;;;;;6.50;99.90;;;;;;5111659;28;19931;-58
2022/09/30 00:43:14;;;;;;;;;;;6.50;99.90;;;;;;5111808;27;20401;-59
2022/09/30 00:45:53;;;;;;;;;;;6.50;99.90;;;;;;5123150;27;19924;-60
2022/09/30 00:48:27;;;;;;;;;;;6.40;99.90;;;;;;5110483;28;20413;-56
2022/09/30 00:50:55;;;;;;;;;;;6.40;99.90;;;;;;5101301;28;19924;-58
2022/09/30 00:53:48;;;;;;;;;;;6.30;99.90;;;;;;5104067;28;19924;-59
2022/09/30 00:56:20;;;;;;;;;;;6.30;99.90;;;;;;5107214;28;19928;-57
2022/09/30 00:59:05;;;;;;;;;;;6.30;99.90;;;;;;5111227;28;19923;-58
2022/09/30 01:01:34;;;;;;;;;;;6.30;99.90;;;;;;5090927;28;19934;-58
2022/09/30 01:04:04;;;;;;;;;;;6.30;99.90;;;;;;5111173;27;19924;-58
2022/09/30 01:06:32;;;;;;;;;;;6.20;99.90;;;;;;5098824;27;19928;-56
2022/09/30 01:09:00;;;;;;;;;;;6.20;99.90;;;;;;5104255;28;20399;-55
2022/09/30 01:11:27;;;;;;;;;;;6.20;99.90;;;;;;5111583;28;19931;-54
2022/09/30 01:13:58;;;;;;;;;;;6.20;99.90;;;;;;5094655;27;20382;-57
2022/09/30 01:16:32;;;;;;;;;;;6.10;99.90;;;;;;5131773;27;20390;-57
2022/09/30 01:19:22;;;;;;;;;;;6.10;99.90;;;;;;5098541;28;19961;-60
2022/09/30 01:22:02;;;;;;;;;;;6.10;99.90;;;;;;5109885;28;19924;-57
2022/09/30 01:24:48;;;;;;;;;;;6.10;99.90;;;;;;5119329;27;20294;-59
2022/09/30 01:27:22;;;;;;;;;;;6.00;99.90;;;;;;5131632;27;19924;-61
2022/09/30 01:29:52;;;;;;;;;;;6.10;99.90;;;;;;5105029;28;19947;-58
2022/09/30 01:32:27;;;;;;;;;;;6.00;99.90;;;;;;5104700;28;19923;-60
2022/09/30 01:34:58;;;;;;;;;;;6.00;99.90;;;;;;5112860;28;19924;-61
2022/09/30 01:37:29;;;;;;;;;;;5.90;99.90;;;;;;5112239;28;19923;-60
2022/09/30 01:39:56;;;;;;;;;;;5.90;99.90;;;;;;5094656;28;19924;-60
2022/09/30 01:42:35;;;;;;;;;;;5.90;99.90;;;;;;5113944;28;19930;-61
2022/09/30 01:45:06;;;;;;;;;;;5.90;99.90;;;;;;5119064;27;19923;-61
2022/09/30 01:47:49;;;;;;;;;;;5.90;99.90;;;;;;5112523;28;19931;-60
2022/09/30 01:50:20;;;;;;;;;;;5.80;99.90;;;;;;5113060;28;19931;-60
2022/09/30 01:53:09;;;;;;;;;;;5.80;99.90;;;;;;5095571;28;20414;-60
2022/09/30 01:55:39;;;;;;;;;;;5.80;99.90;;;;;;5095533;28;19925;-59
2022/09/30 01:58:07;;;;;;;;;;;5.80;99.90;;;;;;5113172;28;20294;-59
2022/09/30 02:00:37;;;;;;;;;;;5.80;99.90;;;;;;5113793;28;20363;-61
2022/09/30 02:03:08;;;;;;;;;;;5.70;99.90;;;;;;5113596;28;19946;-61
2022/09/30 02:05:37;;;;;;;;;;;5.70;99.90;;;;;;5112347;28;19946;-61
2022/09/30 02:08:08;;;;;;;;;;;5.70;99.90;;;;;;5112633;28;19923;-57
2022/09/30 02:10:43;;;;;;;;;;;5.70;99.90;;;;;;5113562;28;19931;-61
2022/09/30 02:13:34;;;;;;;;;;;5.70;99.90;;;;;;5114491;27;19924;-61
2022/09/30 02:16:11;;;;;;;;;;;5.60;99.90;;;;;;5133935;27;19923;-62
2022/09/30 02:18:45;;;;;;;;;;;5.60;99.90;;;;;;5133974;27;20282;-61
2022/09/30 02:21:16;;;;;;;;;;;5.60;99.90;;;;;;5134052;27;20500;-62
2022/09/30 02:23:44;;;;;;;;;;;5.60;99.90;;;;;;5134053;27;20342;-61
2022/09/30 02:26:15;;;;;;;;;;;5.60;99.90;;;;;;5133934;27;19935;-60
2022/09/30 02:29:06;;;;;;;;;;;5.60;99.90;;;;;;5120346;27;20279;-61
2022/09/30 02:31:36;;;;;;;;;;;5.60;99.90;;;;;;5100535;28;19928;-60
2022/09/30 02:34:09;;;;;;;;;;;5.60;99.90;;;;;;5112983;28;19928;-61
2022/09/30 02:36:38;;;;;;;;;;;5.50;99.90;;;;;;5113034;28;19924;-60
2022/09/30 02:39:08;;;;;;;;;;;5.60;99.90;;;;;;5112591;28;19924;-61
2022/09/30 02:41:42;;;;;;;;;;;5.60;99.90;;;;;;5112920;28;19961;-61
2022/09/30 02:44:10;;;;;;;;;;;5.60;99.90;;;;;;5122599;27;19924;-61
2022/09/30 02:46:37;;;;;;;;;;;5.60;99.90;;;;;;5133523;27;20374;-60
2022/09/30 02:49:07;;;;;;;;;;;5.60;99.90;;;;;;5133437;27;20429;-61
2022/09/30 02:51:38;;;;;;;;;;;5.60;99.90;;;;;;5133111;27;19923;-61
2022/09/30 02:54:18;;;;;;;;;;;5.60;99.90;;;;;;5133321;27;19924;-61
2022/09/30 02:57:03;;;;;;;;;;;5.60;99.90;;;;;;5133369;27;19923;-60
2022/09/30 02:59:30;;;;;;;;;;;5.60;99.90;;;;;;5133366;27;19923;-60
2022/09/30 03:01:58;;;;;;;;;;;5.60;99.90;;;;;;5114707;28;20441;-60
2022/09/30 03:04:27;;;;;;;;;;;5.60;99.90;;;;;;5133181;27;19931;-58
2022/09/30 03:06:54;;;;;;;;;;;5.50;99.90;;;;;;5133100;27;19932;-60
2022/09/30 03:09:23;;;;;;;;;;;5.50;99.90;;;;;;5133204;27;20286;-61
2022/09/30 03:11:53;;;;;;;;;;;5.50;99.90;;;;;;5114875;27;19923;-61
2022/09/30 03:14:42;;;;;;;;;;;5.50;99.90;;;;;;5132911;27;20379;-61
2022/09/30 03:17:23;;;;;;;;;;;5.50;99.90;;;;;;5133015;27;19931;-60
2022/09/30 03:19:51;;;;;;;;;;;5.50;99.90;;;;;;5132756;27;19924;-60
2022/09/30 03:22:26;;;;;;;;;;;5.50;99.90;;;;;;5132988;28;20009;-60
2022/09/30 03:24:56;;;;;;;;;;;5.60;99.90;;;;;;5097783;28;19927;-59
2022/09/30 03:27:24;;;;;;;;;;;5.60;99.90;;;;;;5133032;28;19931;-57
2022/09/30 03:30:02;;;;;;;;;;;5.60;99.90;;;;;;5132804;28;20288;-58
2022/09/30 03:32:42;;;;;;;;;;;5.60;99.90;;;;;;5132922;28;19923;-57
2022/09/30 03:35:28;;;;;;;;;;;5.60;99.90;;;;;;5114375;28;20397;-56
2022/09/30 03:38:14;;;;;;;;;;;5.60;99.90;;;;;;5132824;28;19924;-57
2022/09/30 03:40:50;;;;;;;;;;;5.70;99.90;;;;;;5132814;28;19923;-57
2022/09/30 03:43:24;;;;;;;;;;;5.70;99.90;;;;;;5132926;28;19923;-57
2022/09/30 03:45:55;;;;;;;;;;;5.80;99.90;;;;;;5132812;28;19931;-59
2022/09/30 03:48:23;;;;;;;;;;;5.80;99.90;;;;;;5132907;28;19924;-59
2022/09/30 03:50:51;;;;;;;;;;;5.90;99.90;;;;;;5132790;27;19932;-59
2022/09/30 03:53:19;;;;;;;;;;;5.90;99.90;;;;;;5132692;28;19993;-58
2022/09/30 03:55:48;;;;;;;;;;;6.00;99.90;;;;;;5132650;28;19931;-60
2022/09/30 03:58:21;;;;;;;;;;;6.00;99.90;;;;;;5132812;28;19923;-57
2022/09/30 04:00:49;;;;;;;;;;;6.00;99.90;;;;;;5132647;28;19930;-59
2022/09/30 04:03:18;;;;;;;;;;;6.00;99.90;;;;;;5132577;28;19924;-58
2022/09/30 04:05:46;;;;;;;;;;;6.10;99.90;;;;;;5132597;28;19923;-59
2022/09/30 04:08:14;;;;;;;;;;;6.10;99.90;;;;;;5132335;28;19924;-59
2022/09/30 04:10:42;;;;;;;;;;;6.20;99.90;;;;;;5132523;28;19924;-58
2022/09/30 04:13:10;;;;;;;;;;;6.20;99.90;;;;;;5114282;28;19931;-58
2022/09/30 04:15:39;;;;;;;;;;;6.20;99.90;;;;;;5132442;28;19934;-59
2022/09/30 04:18:07;;;;;;;;;;;6.20;99.90;;;;;;5132389;28;19923;-58
2022/09/30 04:20:34;;;;;;;;;;;6.30;99.90;;;;;;5132135;28;19924;-57
2022/09/30 04:23:02;;;;;;;;;;;6.30;99.90;;;;;;5130993;28;20290;-59
2022/09/30 04:25:30;;;;;;;;;;;6.30;99.90;;;;;;5132373;28;20416;-58
2022/09/30 04:27:57;;;;;;;;;;;6.30;99.90;;;;;;5132318;28;20290;-58
2022/09/30 04:30:24;;;;;;;;;;;6.30;99.90;;;;;;5132382;27;19934;-57
2022/09/30 04:32:58;;;;;;;;;;;6.40;99.90;;;;;;5125929;27;19924;-59
2022/09/30 04:35:28;;;;;;;;;;;6.40;99.90;;;;;;5096985;28;19928;-59
2022/09/30 04:37:56;;;;;;;;;;;6.40;99.90;;;;;;5097232;28;19931;-58
2022/09/30 04:40:24;;;;;;;;;;;6.40;99.90;;;;;;5115193;28;19931;-59
2022/09/30 04:42:55;;;;;;;;;;;6.40;99.90;;;;;;5115235;28;19931;-59
2022/09/30 04:45:23;;;;;;;;;;;6.30;99.90;;;;;;5128014;27;19923;-58
2022/09/30 04:47:51;;;;;;;;;;;6.30;99.90;;;;;;5107850;28;19931;-57
2022/09/30 04:50:18;;;;;;;;;;;6.40;99.90;;;;;;5111460;28;19931;-59
2022/09/30 04:52:48;;;;;;;;;;;6.40;99.90;;;;;;5093229;28;19924;-58
2022/09/30 04:55:16;;;;;;;;;;;6.40;99.90;;;;;;5093341;28;19938;-59
2022/09/30 04:57:44;;;;;;;;;;;6.40;99.90;;;;;;5111252;28;19931;-59
2022/09/30 05:00:11;;;;;;;;;;;6.40;99.90;;;;;;5111888;28;19924;-57
2022/09/30 05:02:41;;;;;;;;;;;6.50;99.90;;;;;;5099959;28;19931;-59
2022/09/30 05:05:09;;;;;;;;;;;6.50;99.90;;;;;;5053825;28;19932;-58
2022/09/30 05:07:36;;;;;;;;;;;6.50;99.90;;;;;;5092952;28;19928;-59
2022/09/30 05:10:04;;;;;;;;;;;6.60;99.90;;;;;;5111474;28;19946;-57
2022/09/30 05:12:31;;;;;;;;;;;6.60;99.90;;;;;;5111431;28;19924;-58
2022/09/30 05:14:58;;;;;;;;;;;6.60;99.90;;;;;;5130869;27;20386;-59
2022/09/30 05:17:28;;;;;;;;;;;6.60;99.90;;;;;;5126657;27;19931;-58
2022/09/30 05:19:56;;;;;;;;;;;6.60;99.90;;;;;;5090571;28;19924;-59
2022/09/30 05:22:23;;;;;;;;;;;6.70;99.90;;;;;;5072699;28;19924;-58
2022/09/30 05:24:51;;;;;;;;;;;6.70;99.90;;;;;;5110278;28;20371;-58
2022/09/30 05:27:19;;;;;;;;;;;6.70;99.90;;;;;;5092975;28;19927;-59
2022/09/30 05:29:46;;;;;;;;;;;6.80;99.90;;;;;;5111043;28;19931;-57
2022/09/30 05:32:14;;;;;;;;;;;6.80;99.90;;;;;;5110951;28;19924;-57
2022/09/30 05:34:42;;;;;;;;;;;6.80;99.90;;;;;;5092447;27;19924;-57
2022/09/30 05:37:09;;;;;;;;;;;6.90;99.90;;;;;;5088470;28;19924;-58
2022/09/30 05:39:36;;;;;;;;;;;6.90;99.90;;;;;;5107678;28;19928;-58
2022/09/30 05:42:04;;;;;;;;;;;7.00;99.90;;;;;;5091492;28;20284;-58
2022/09/30 05:44:31;;;;;;;;;;;7.00;99.90;;;;;;5127203;27;20433;-55
2022/09/30 05:46:59;;;;;;;;;;;7.10;99.90;;;;;;5131240;27;20279;-59
2022/09/30 05:49:27;;;;;;;;;;;7.10;99.90;;;;;;5090418;28;19924;-59
2022/09/30 05:51:54;;;;;;;;;;;7.10;99.90;;;;;;5090300;28;19936;-58
2022/09/30 05:54:21;;;;;;;;;;;7.10;99.90;;;;;;5120484;27;19947;-57
2022/09/30 05:56:49;;;;;;;;;;;7.20;99.90;;;;;;5131074;27;20370;-57
2022/09/30 05:59:17;;;;;;;;;;;7.20;99.90;;;;;;5093260;28;19931;-55
2022/09/30 06:01:45;;;;;;;;;;;7.20;99.90;;;;;;5110440;28;19927;-55
2022/09/30 06:04:12;;;;;;;;;;;7.30;99.90;;;;;;5097437;27;19935;-55
2022/09/30 06:06:40;;;;;;;;;;;7.20;99.90;;;;;;5089809;28;20314;-56
2022/09/30 06:09:07;;;;;;;;;;;7.30;99.90;;;;;;5107650;28;19931;-56
2022/09/30 06:11:34;;;;;;;;;;;7.40;99.90;;;;;;5110367;28;19923;-55
2022/09/30 06:14:02;;;;;;;;;;;7.50;99.90;;;;;;5118411;27;20310;-55
2022/09/30 06:16:30;;;;;;;;;;;7.60;99.90;;;;;;5112021;27;19934;-57
2022/09/30 06:18:58;;;;;;;;;;;7.60;99.90;;;;;;5103674;27;19924;-54
2022/09/30 06:21:26;;;;;;;;;;;7.70;99.90;;;;;;5087829;28;19937;-58
2022/09/30 06:23:53;;;;;;;;;;;7.80;99.90;;;;;;5108268;27;19937;-59
2022/09/30 06:26:20;;;;;;;;;;;7.80;99.90;;;;;;5110567;27;19927;-59
2022/09/30 06:28:49;;;;;;;;;;;7.90;99.90;;;;;;5114972;27;19924;-56
2022/09/30 06:31:16;;;;;;;;;;;8.00;99.90;;;;;;5109900;28;19924;-55
2022/09/30 06:33:44;;;;;;;;;;;8.00;99.90;;;;;;5109886;27;19924;-58
2022/09/30 06:36:11;;;;;;;;;;;8.10;99.90;;;;;;5091161;28;19923;-56
2022/09/30 06:38:39;;;;;;;;;;;8.20;99.90;;;;;;5109526;28;19923;-59
2022/09/30 06:41:06;;;;;;;;;;;8.20;99.90;;;;;;5091337;28;19924;-59
2022/09/30 06:43:34;;;;;;;;;;;8.20;99.90;;;;;;5112193;27;19931;-59
2022/09/30 06:46:01;;;;;;;;;;;8.30;99.90;;;;;;5109536;28;19924;-58
2022/09/30 06:48:43;;;;;;;;;;;8.30;99.90;;;;;;5111618;27;19924;-56
2022/09/30 06:51:11;;;;;;;;;;;8.40;99.90;;;;;;5089218;28;20372;-61
2022/09/30 06:53:39;;;;;;;;;;;8.50;99.90;;;;;;5106560;27;19923;-56
2022/09/30 06:56:07;;;;;;;;;;;8.50;99.90;;;;;;5129688;27;19931;-58
2022/09/30 06:58:34;;;;;;;;;;;8.70;99.90;;;;;;5107129;28;19943;-60
2022/09/30 07:01:03;;;;;;;;;;;8.70;99.90;;;;;;5096220;28;20508;-61
2022/09/30 07:03:32;;;;;;;;;;;8.80;99.90;;;;;;5107070;27;19928;-61
2022/09/30 07:06:01;;;;;;;;;;;8.80;99.90;;;;;;5091067;28;19934;-63
2022/09/30 07:08:30;;;;;;;;;;;8.90;99.90;;;;;;5104183;28;20356;-60
2022/09/30 07:10:58;;;;;;;;;;;9.00;99.90;;;;;;5102880;28;19931;-57
2022/09/30 07:13:25;;;;;;;;;;;9.00;99.90;;;;;;5110344;27;19924;-56
2022/09/30 07:15:55;;;;;;;;;;;9.00;99.90;;;;;;5091805;28;19924;-60
2022/09/30 07:18:23;;;;;;;;;;;9.10;99.90;;;;;;5103661;28;19952;-62
2022/09/30 07:20:51;;;;;;;;;;;9.10;99.90;;;;;;5091025;28;19925;-60
2022/09/30 07:23:19;;;;;;;;;;;9.10;99.90;;;;;;5094103;28;19943;-61
2022/09/30 07:25:55;;;;;;;;;;;9.10;99.90;;;;;;5093007;28;20407;-60
2022/09/30 07:28:26;;;;;;;;;;;9.10;99.90;;;;;;5087992;28;19923;-60
2022/09/30 07:30:57;;;;;;;;;;;9.20;99.90;;;;;;5105750;28;19924;-58
2022/09/30 07:33:45;;;;;;;;;;;9.20;99.90;;;;;;5095734;28;19958;-60
2022/09/30 07:36:16;;;;;;;;;;;9.30;99.90;;;;;;5086247;28;19928;-59
2022/09/30 07:38:44;;;;;;;;;;;9.30;99.90;;;;;;5097198;28;20417;-61
2022/09/30 07:41:13;;;;;;;;;;;9.30;99.90;;;;;;5121449;28;19923;-61
2022/09/30 07:43:44;;;;;;;;;;;9.30;99.90;;;;;;5103775;28;19923;-58
2022/09/30 07:46:13;;;;;;;;;;;9.40;99.90;;;;;;5106684;28;19928;-63
2022/09/30 07:48:43;;;;;;;;;;;9.40;99.90;;;;;;5108674;28;19924;-62
2022/09/30 07:51:12;;;;;;;;;;;9.40;99.90;;;;;;5101934;28;19931;-61
2022/09/30 07:53:40;;;;;;;;;;;9.40;99.90;;;;;;5088241;28;19925;-64
2022/09/30 07:56:08;;;;;;;;;;;9.40;99.90;;;;;;5070323;28;19924;-62
2022/09/30 07:58:35;;;;;;;;;;;9.40;99.90;;;;;;5104874;28;19956;-62
2022/09/30 08:01:05;;;;;;;;;;;9.50;99.90;;;;;;5108938;28;19927;-62
2022/09/30 08:03:34;;;;;;;;;;;9.40;99.90;;;;;;5116160;28;19927;-61
2022/09/30 08:06:03;;;;;;;;;;;9.40;99.90;;;;;;5120984;27;19924;-61
2022/09/30 08:08:30;;;;;;;;;;;9.50;99.90;;;;;;5112811;28;19927;-62
2022/09/30 08:10:58;;;;;;;;;;;9.50;99.90;;;;;;5112030;28;19950;-61
2022/09/30 08:13:26;;;;;;;;;;;9.50;99.90;;;;;;5111427;28;19924;-61
2022/09/30 08:15:53;;;;;;;;;;;9.50;99.90;;;;;;5111251;28;19927;-57
2022/09/30 08:18:21;;;;;;;;;;;9.60;99.90;;;;;;5112168;28;19924;-59
2022/09/30 08:20:48;;;;;;;;;;;9.70;99.90;;;;;;5111154;28;19924;-56
2022/09/30 08:23:16;;;;;;;;;;;9.70;99.90;;;;;;5112019;28;20391;-56
2022/09/30 08:25:43;;;;;;;;;;;9.80;99.90;;;;;;5111629;28;19924;-56
2022/09/30 08:28:12;;;;;;;;;;;9.80;99.90;;;;;;5099723;28;20386;-61
2022/09/30 08:30:39;;;;;;;;;;;9.90;99.90;;;;;;5110907;28;20298;-56
2022/09/30 08:33:07;;;;;;;;;;;9.90;99.90;;;;;;5108489;28;20126;-56
2022/09/30 08:35:35;;;;;;;;;;;9.90;99.90;;;;;;5108236;28;19931;-55
2022/09/30 08:38:03;;;;;;;;;;;9.90;99.90;;;;;;5100659;28;19923;-58
2022/09/30 08:40:31;;;;;;;;;;;10.00;99.90;;;;;;5111592;28;19931;-57
2022/09/30 08:43:01;;;;;;;;;;;10.00;99.90;;;;;;5078370;27;19924;-57
2022/09/30 08:45:36;;;;;;;;;;;10.00;99.90;;;;;;5081301;28;19924;-58
2022/09/30 08:48:12;;;;;;;;;;;10.00;99.90;;;;;;5110772;27;19923;-56
2022/09/30 08:50:43;;;;;;;;;;;10.00;99.90;;;;;;5093483;28;19930;-56
2022/09/30 08:53:22;;;;;;;;;;;10.10;99.90;;;;;;5099536;27;19924;-57
2022/09/30 08:55:50;;;;;;;;;;;10.10;99.90;;;;;;5132247;27;19931;-59
2022/09/30 08:58:25;;;;;;;;;;;10.10;99.90;;;;;;5107150;27;19947;-60
2022/09/30 09:00:54;;;;;;;;;;;10.10;99.90;;;;;;5110580;28;19931;-58
2022/09/30 09:03:25;;;;;;;;;;;10.20;99.90;;;;;;5117158;27;19930;-59
2022/09/30 09:05:59;;;;;;;;;;;10.40;99.90;;;;;;5131891;27;20301;-59
2022/09/30 09:08:27;;;;;;;;;;;10.30;99.90;;;;;;5102498;27;19924;-56
2022/09/30 09:10:58;;;;;;;;;;;10.40;99.90;;;;;;5111227;28;20291;-56
2022/09/30 09:13:33;;;;;;;;;;;10.40;99.90;;;;;;5095764;27;19924;-58
2022/09/30 09:16:00;;;;;;;;;;;10.40;99.90;;;;;;5111251;28;19924;-57
2022/09/30 09:18:27;;;;;;;;;;;10.50;99.90;;;;;;5110582;28;19924;-56
2022/09/30 09:20:56;;;;;;;;;;;10.60;99.90;;;;;;5110375;28;20279;-57
2022/09/30 09:23:25;;;;;;;;;;;10.60;99.90;;;;;;5096230;27;19927;-57
2022/09/30 09:25:52;;;;;;;;;;;10.70;99.90;;;;;;5089176;28;20371;-61
2022/09/30 09:28:20;;;;;;;;;;;10.70;99.90;;;;;;5108018;27;20290;-56
2022/09/30 09:30:51;;;;;;;;;;;10.80;99.90;;;;;;5107781;28;19939;-57
2022/09/30 09:33:24;;;;;;;;;;;10.90;99.90;;;;;;5107274;28;19928;-56
2022/09/30 09:36:03;;;;;;;;;;;11.00;99.90;;;;;;5106511;28;19924;-56
2022/09/30 09:38:57;;;;;;;;;;;11.00;99.90;;;;;;5086583;28;19924;-57
2022/09/30 09:41:25;;;;;;;;;;;11.00;99.90;;;;;;5106185;28;19924;-57
2022/09/30 09:43:57;;;;;;;;;;;11.10;99.90;;;;;;5091611;28;19923;-61
2022/09/30 09:46:40;;;;;;;;;;;11.10;99.90;;;;;;5107273;28;19923;-63
2022/09/30 09:49:26;;;;;;;;;;;11.20;99.90;;;;;;5107164;28;19927;-62
2022/09/30 09:52:12;;;;;;;;;;;11.20;99.90;;;;;;5105503;28;19927;-59
2022/09/30 09:54:44;;;;;;;;;;;11.30;99.90;;;;;;5123361;27;19923;-56
2022/09/30 09:57:17;;;;;;;;;;;11.30;99.90;;;;;;5108442;27;20330;-59
2022/09/30 09:59:58;;;;;;;;;;;11.40;99.90;;;;;;5102213;28;20414;-56
2022/09/30 10:02:28;;;;;;;;;;;11.50;99.90;;;;;;5101871;28;19931;-58
2022/09/30 10:05:02;;;;;;;;;;;11.50;99.90;;;;;;5105117;27;19927;-56
2022/09/30 10:07:32;;;;;;;;;;;11.60;99.90;;;;;;5111788;27;19935;-59
2022/09/30 10:10:16;;;;;;;;;;;11.70;99.90;;;;;;5106894;28;19931;-62
2022/09/30 10:12:49;;;;;;;;;;;11.70;99.90;;;;;;5105514;28;19938;-61
2022/09/30 10:15:21;;;;;;;;;;;11.80;99.90;;;;;;5125788;27;19958;-56
2022/09/30 10:17:56;;;;;;;;;;;11.80;99.90;;;;;;5096612;28;20382;-56
2022/09/30 10:20:27;;;;;;;;;;;11.80;99.90;;;;;;5085759;28;20383;-59
2022/09/30 10:23:06;;;;;;;;;;;11.90;99.90;;;;;;5094047;28;19928;-61
2022/09/30 10:25:34;;;;;;;;;;;11.80;99.90;;;;;;5084919;28;19928;-55
2022/09/30 10:28:17;;;;;;;;;;;11.90;99.90;;;;;;5096048;27;20298;-56
2022/09/30 10:30:52;;;;;;;;;;;11.90;99.90;;;;;;5096835;28;19928;-55
2022/09/30 10:33:22;;;;;;;;;;;11.90;99.90;;;;;;5101579;28;20338;-57
2022/09/30 10:35:54;;;;;;;;;;;11.80;99.90;;;;;;5101674;28;19927;-57
2022/09/30 10:38:23;;;;;;;;;;;11.90;99.90;;;;;;5112917;27;19931;-56
2022/09/30 10:40:51;;;;;;;;;;;11.80;99.90;;;;;;5109940;27;20413;-60
2022/09/30 10:43:21;;;;;;;;;;;11.80;99.90;;;;;;5106650;27;19931;-61
2022/09/30 10:45:50;;;;;;;;;;;11.80;99.90;;;;;;5126995;27;19923;-60
2022/09/30 10:48:37;;;;;;;;;;;11.80;99.90;;;;;;5097267;28;20375;-62
2022/09/30 10:51:06;;;;;;;;;;;11.70;99.90;;;;;;5106046;28;19924;-60
2022/09/30 10:53:34;;;;;;;;;;;11.70;99.90;;;;;;5097910;28;19924;-59
2022/09/30 10:56:04;;;;;;;;;;;11.70;99.90;;;;;;5104994;28;19924;-61
2022/09/30 10:58:37;;;;;;;;;;;11.60;99.90;;;;;;5105693;28;19923;-59
2022/09/30 11:01:17;;;;;;;;;;;11.60;99.90;;;;;;5103747;28;19924;-58
2022/09/30 11:03:53;;;;;;;;;;;11.50;99.90;;;;;;5105498;27;20363;-57
2022/09/30 11:06:23;;;;;;;;;;;11.50;99.90;;;;;;5105174;28;19923;-57
2022/09/30 11:08:57;;;;;;;;;;;11.50;99.90;;;;;;5086740;28;20379;-58
2022/09/30 11:11:28;;;;;;;;;;;11.50;99.90;;;;;;5103953;28;19924;-56
2022/09/30 11:14:14;;;;;;;;;;;11.50;99.90;;;;;;5112107;27;19924;-58
2022/09/30 11:16:58;;;;;;;;;;;11.50;99.90;;;;;;5106060;27;20279;-56
2022/09/30 11:19:25;;;;;;;;;;;11.50;99.90;;;;;;5105502;28;19923;-57
2022/09/30 11:21:55;;;;;;;;;;;11.50;99.90;;;;;;5097547;28;20295;-57
2022/09/30 11:24:31;;;;;;;;;;;11.50;99.90;;;;;;5103528;28;19935;-57
2022/09/30 11:27:05;;;;;;;;;;;11.50;99.90;;;;;;5087098;28;19923;-57
2022/09/30 11:29:48;;;;;;;;;;;11.40;99.90;;;;;;5105511;28;19928;-57
2022/09/30 11:32:48;;;;;;;;;;;11.50;99.90;;;;;;5103413;28;19935;-57
2022/09/30 11:35:16;;;;;;;;;;;11.50;99.90;;;;;;5064147;28;19923;-56
2022/09/30 11:38:01;;;;;;;;;;;11.50;99.90;;;;;;5091743;28;19928;-57
2022/09/30 11:40:41;;;;;;;;;;;11.40;99.90;;;;;;5068794;28;19932;-56
2022/09/30 11:43:30;;;;;;;;;;;11.50;99.90;;;;;;5065969;27;19942;-56
2022/09/30 11:46:16;;;;;;;;;;;11.50;99.90;;;;;;5106519;27;19924;-55
2022/09/30 11:48:48;;;;;;;;;;;11.50;99.90;;;;;;5087200;28;19924;-56
2022/09/30 11:51:24;;;;;;;;;;;11.60;99.90;;;;;;5113022;28;19935;-55
2022/09/30 11:54:02;;;;;;;;;;;11.60;99.90;;;;;;5090277;28;20512;-56
2022/09/30 11:56:59;;;;;;;;;;;11.60;99.90;;;;;;5112932;28;19924;-56
2022/09/30 11:59:41;;;;;;;;;;;11.60;99.90;;;;;;5073839;28;19928;-56
2022/09/30 12:02:18;;;;;;;;;;;11.60;99.90;;;;;;5094661;28;19931;-56
2022/09/30 12:04:46;;;;;;;;;;;11.60;99.90;;;;;;5104384;28;19924;-55
2022/09/30 12:07:18;;;;;;;;;;;11.60;99.90;;;;;;5112577;28;19924;-55
2022/09/30 12:09:51;;;;;;;;;;;11.60;99.90;;;;;;5092574;28;19924;-56
2022/09/30 12:12:19;;;;;;;;;;;11.60;99.90;;;;;;5110088;28;19935;-55
2022/09/30 12:15:01;;;;;;;;;;;11.60;99.90;;;;;;5113769;27;19931;-55
2022/09/30 12:17:33;;;;;;;;;;;11.60;99.90;;;;;;5093235;28;19931;-55
2022/09/30 12:20:14;;;;;;;;;;;11.70;99.90;;;;;;5112047;28;19935;-55
2022/09/30 12:22:43;;;;;;;;;;;11.70;99.90;;;;;;5110000;28;19924;-54
2022/09/30 12:25:22;;;;;;;;;;;11.70;99.90;;;;;;5110932;28;19924;-54
2022/09/30 12:27:56;;;;;;;;;;;11.70;99.90;;;;;;5097615;28;19940;-54
2022/09/30 12:30:24;;;;;;;;;;;11.70;99.90;;;;;;5111778;28;19924;-54
2022/09/30 12:33:04;;;;;;;;;;;11.70;99.90;;;;;;5112210;28;19930;-54
2022/09/30 12:35:51;;;;;;;;;;;11.70;99.90;;;;;;5132698;27;19938;-54
2022/09/30 12:38:18;;;;;;;;;;;11.70;99.90;;;;;;5108460;27;19982;-54
2022/09/30 12:40:58;;;;;;;;;;;11.70;99.90;;;;;;5111245;28;20307;-54
2022/09/30 12:43:26;;;;;;;;;;;11.70;99.90;;;;;;5081063;27;20412;-53
2022/09/30 12:45:59;;;;;;;;;;;11.70;99.90;;;;;;5128915;27;19931;-54
2022/09/30 12:48:36;;;;;;;;;;;11.70;99.90;;;;;;5118197;27;20306;-54
2022/09/30 12:51:04;;;;;;;;;;;11.70;99.90;;;;;;5108518;28;19931;-54
2022/09/30 12:53:36;;;;;;;;;;;11.70;99.90;;;;;;5098939;28;20269;-54
2022/09/30 12:56:06;;;;;;;;;;;11.70;99.90;;;;;;5088089;28;19931;-54
2022/09/30 12:58:52;;;;;;;;;;;11.80;99.90;;;;;;5099390;28;19923;-53
2022/09/30 13:01:24;;;;;;;;;;;11.70;99.90;;;;;;5108295;28;19931;-53
2022/09/30 13:04:11;;;;;;;;;;;11.80;99.90;;;;;;5105513;27;19924;-54
2022/09/30 13:06:48;;;;;;;;;;;11.70;99.90;;;;;;5106840;28;19924;-53
2022/09/30 13:09:15;;;;;;;;;;;11.70;99.90;;;;;;5097363;28;19936;-54
2022/09/30 13:11:43;;;;;;;;;;;11.70;99.90;;;;;;5101968;28;19924;-54
2022/09/30 13:14:21;;;;;;;;;;;11.70;99.90;;;;;;5113271;27;19938;-54
2022/09/30 13:17:12;;;;;;;;;;;11.70;99.90;;;;;;5087950;28;19924;-54
2022/09/30 13:19:47;;;;;;;;;;;11.70;99.90;;;;;;5070595;28;19931;-53
2022/09/30 13:22:17;;;;;;;;;;;11.70;99.90;;;;;;5103601;28;19924;-53
2022/09/30 13:25:02;;;;;;;;;;;11.60;99.90;;;;;;5106419;27;20022;-54
2022/09/30 13:27:40;;;;;;;;;;;11.60;99.90;;;;;;5089340;28;19931;-54
2022/09/30 13:30:14;;;;;;;;;;;11.60;99.90;;;;;;5107750;28;19927;-53
2022/09/30 13:32:44;;;;;;;;;;;11.60;99.90;;;;;;5107836;28;20314;-54
2022/09/30 13:35:24;;;;;;;;;;;11.60;99.90;;;;;;5107273;27;19932;-54
2022/09/30 13:38:10;;;;;;;;;;;11.60;99.90;;;;;;5103308;28;19931;-54
2022/09/30 13:40:50;;;;;;;;;;;11.60;99.90;;;;;;5106292;28;19935;-54
2022/09/30 13:43:43;;;;;;;;;;;11.60;99.90;;;;;;5089610;27;19931;-55
2022/09/30 13:46:49;;;;;;;;;;;11.50;99.90;;;;;;5106775;28;19931;-54
2022/09/30 13:49:43;;;;;;;;;;;11.50;99.90;;;;;;5003090;28;19956;-54
2022/09/30 13:52:28;;;;;;;;;;;11.50;99.90;;;;;;4970218;28;19953;-55
2022/09/30 13:54:58;;;;;;;;;;;11.50;99.90;;;;;;5068373;28;20368;-54
2022/09/30 13:57:31;;;;;;;;;;;11.50;99.90;;;;;;5097910;28;20603;-55
2022/09/30 13:59:59;;;;;;;;;;;11.50;99.90;;;;;;5099807;28;19935;-55
2022/09/30 14:02:29;;;;;;;;;;;11.50;99.90;;;;;;5094092;28;19930;-54
2022/09/30 14:05:13;;;;;;;;;;;11.50;99.90;;;;;;5107852;27;19924;-54
2022/09/30 14:07:56;;;;;;;;;;;11.50;99.90;;;;;;5085778;28;19928;-54
2022/09/30 14:10:24;;;;;;;;;;;11.50;99.90;;;;;;5098607;28;19934;-54
2022/09/30 14:13:10;;;;;;;;;;;11.50;99.90;;;;;;5104455;28;19927;-54
2022/09/30 14:15:56;;;;;;;;;;;11.50;99.90;;;;;;5091078;28;19942;-54
2022/09/30 14:18:43;;;;;;;;;;;11.50;99.90;;;;;;5101710;28;20398;-54
2022/09/30 14:21:10;;;;;;;;;;;11.50;99.90;;;;;;5102574;28;20193;-54
2022/09/30 14:23:38;;;;;;;;;;;11.50;99.90;;;;;;5083597;28;19935;-54
2022/09/30 14:26:13;;;;;;;;;;;11.50;99.90;;;;;;5093507;28;19948;-53
2022/09/30 14:28:45;;;;;;;;;;;11.50;99.90;;;;;;5104787;28;19932;-53
2022/09/30 14:31:14;;;;;;;;;;;11.60;99.90;;;;;;5100810;28;19931;-54
2022/09/30 14:33:45;;;;;;;;;;;11.60;99.90;;;;;;5086369;28;19924;-54
2022/09/30 14:36:16;;;;;;;;;;;11.60;99.90;;;;;;5102492;28;20316;-54
2022/09/30 14:38:52;;;;;;;;;;;11.60;99.90;;;;;;5103606;28;19931;-54
2022/09/30 14:41:21;;;;;;;;;;;11.60;99.90;;;;;;5100241;28;19927;-54
2022/09/30 14:43:51;;;;;;;;;;;11.60;99.90;;;;;;5109947;27;20379;-54
2022/09/30 14:46:39;;;;;;;;;;;11.60;99.90;;;;;;5086331;28;19931;-54
2022/09/30 14:49:10;;;;;;;;;;;11.60;99.90;;;;;;5101142;28;19972;-54
2022/09/30 14:51:43;;;;;;;;;;;11.60;99.90;;;;;;5099790;28;19930;-54
2022/09/30 14:54:32;;;;;;;;;;;11.60;99.90;;;;;;5101687;28;19939;-54